Terminal Aerodrome Forecast
Issued by NWS

Current Version | Previous Version | Text Only | Print | Product List | Glossary On
Versions: 1 2 3 4 5 6 7 8 9 10 11 12 13 14 15 16
000
FTUS44 KLUB 300600 RRA
TAFCDS
TAF
KCDS 300606Z 3006/3106 12010KT 4SM -TSRA BR FEW045CB BKN070 OVC090
     FM300800 14011KT 5SM -SHRA BKN040 OVC100
      TEMPO 3008/3012 VRB15G25KT 3SM TSRA BKN030CB OVC100
     FM301200 16012KT P6SM SCT020 BKN100
     FM301500 18013KT P6SM SCT050 BKN100=

USA.gov is the U.S. government's official web portal to all federal, state and local government web resources and services.